Time;durP1;ratioP1;P1;durP2;ratioP2;P2;SDS_P1;SDS_P2;PMS_P1;PMS_P2;Temp;Humidity;BMP_temperature;BMP_pressure;BME280_temperature;BME280_humidity;BME280_pressure;Samples;Min_cycle;Max_cycle;Signal;HPM_P1;HPM_P2
2023/05/18 00:01:40;;;;;;;3.00;1.30;;;13.70;83.50;;;;;;10395792;28;20029;-67
2023/05/18 00:06:41;;;;;;;3.53;1.20;;;13.70;83.40;;;;;;10394402;28;20029;-67
2023/05/18 00:11:41;;;;;;;2.20;1.30;;;13.60;83.40;;;;;;10392490;28;20578;-67
2023/05/18 00:16:42;;;;;;;1.77;1.15;;;13.60;83.40;;;;;;10399561;28;20028;-67
2023/05/18 00:21:46;;;;;;;2.00;1.05;;;13.60;83.40;;;;;;10396822;28;20039;-67
2023/05/18 00:26:48;;;;;;;3.70;1.13;;;13.60;83.40;;;;;;10392120;28;20079;-67
2023/05/18 00:31:48;;;;;;;2.92;1.15;;;13.50;83.30;;;;;;10407656;28;20230;-67
2023/05/18 00:36:49;;;;;;;2.80;1.10;;;13.50;83.40;;;;;;10413060;28;20349;-67
2023/05/18 00:41:50;;;;;;;2.03;1.13;;;13.50;83.30;;;;;;10403994;28;20166;-67
2023/05/18 00:46:50;;;;;;;2.17;0.95;;;13.50;83.30;;;;;;10399838;28;20102;-67
2023/05/18 00:51:52;;;;;;;3.38;1.20;;;13.40;83.20;;;;;;10409120;28;20037;-67
2023/05/18 00:56:52;;;;;;;1.17;0.90;;;13.40;83.30;;;;;;10414478;28;20017;-67
2023/05/18 01:01:53;;;;;;;1.80;0.95;;;13.40;83.30;;;;;;10407816;28;20037;-67
2023/05/18 01:06:55;;;;;;;2.60;1.20;;;13.30;83.20;;;;;;10394926;28;20386;-67
2023/05/18 01:12:04;;;;;;;3.63;0.90;;;13.30;83.30;;;;;;10387601;28;20077;-67
2023/05/18 01:17:20;;;;;;;2.38;1.00;;;13.30;83.20;;;;;;10410333;28;20020;-67
2023/05/18 01:22:49;;;;;;;3.15;1.27;;;13.30;83.30;;;;;;10395675;28;20018;-67
2023/05/18 01:27:54;;;;;;;2.78;1.20;;;13.20;83.10;;;;;;10403921;28;20037;-67
2023/05/18 01:32:55;;;;;;;2.38;1.30;;;13.20;83.20;;;;;;10410719;28;20052;-67
2023/05/18 01:37:55;;;;;;;1.65;1.00;;;13.20;83.30;;;;;;10407696;28;20570;-67
2023/05/18 01:43:01;;;;;;;3.22;1.35;;;13.10;83.20;;;;;;10402585;28;20552;-67
2023/05/18 01:48:04;;;;;;;1.52;1.15;;;13.10;83.20;;;;;;10395205;28;20509;-67
2023/05/18 01:53:14;;;;;;;2.97;1.50;;;13.10;83.20;;;;;;10408258;28;20524;-67
2023/05/18 01:58:16;;;;;;;2.42;1.00;;;13.10;83.10;;;;;;10411479;28;20021;-67
2023/05/18 02:03:17;;;;;;;2.40;1.40;;;13.10;83.20;;;;;;10401233;28;20021;-67
2023/05/18 02:08:17;;;;;;;1.90;1.25;;;13.00;83.20;;;;;;10396203;28;20397;-67
2023/05/18 02:13:18;;;;;;;5.68;1.30;;;13.00;83.20;;;;;;10399954;28;20079;-67
2023/05/18 02:18:20;;;;;;;2.40;1.00;;;13.00;83.20;;;;;;10406036;28;20602;-67
2023/05/18 02:23:21;;;;;;;2.85;1.20;;;12.90;83.20;;;;;;10395587;28;20024;-67
2023/05/18 02:28:22;;;;;;;5.10;1.30;;;12.90;83.20;;;;;;10405003;28;20037;-67
2023/05/18 02:33:25;;;;;;;2.38;1.25;;;12.90;83.20;;;;;;10410162;28;20077;-67
2023/05/18 02:38:26;;;;;;;5.88;1.38;;;12.90;83.20;;;;;;10399079;28;20029;-67
2023/05/18 02:43:26;;;;;;;2.35;1.02;;;12.80;83.20;;;;;;10401534;28;20443;-67
2023/05/18 02:48:27;;;;;;;2.15;1.20;;;12.80;83.20;;;;;;10373295;28;20505;-67
2023/05/18 02:53:27;;;;;;;1.35;1.05;;;12.80;83.20;;;;;;10407140;28;20507;-67
2023/05/18 02:58:28;;;;;;;1.63;1.10;;;12.80;83.30;;;;;;10398992;28;20033;-67
2023/05/18 03:03:29;;;;;;;2.22;1.33;;;12.70;83.20;;;;;;10404444;28;20180;-67
2023/05/18 03:08:30;;;;;;;3.58;1.35;;;12.70;83.20;;;;;;10390431;28;20033;-67
2023/05/18 03:13:30;;;;;;;2.42;1.20;;;12.70;83.20;;;;;;10394406;28;20052;-67
2023/05/18 03:18:31;;;;;;;2.28;1.20;;;12.60;83.20;;;;;;10397797;28;20113;-67
2023/05/18 03:23:32;;;;;;;2.85;1.10;;;12.70;83.30;;;;;;10387840;28;20037;-67
2023/05/18 03:28:33;;;;;;;2.00;1.13;;;12.60;83.30;;;;;;10396224;28;20025;-67
2023/05/18 03:33:33;;;;;;;1.20;1.10;;;12.60;83.40;;;;;;10403281;28;20029;-67
2023/05/18 03:38:34;;;;;;;6.10;1.30;;;12.60;83.30;;;;;;10383207;28;20033;-67
2023/05/18 03:43:35;;;;;;;1.52;0.90;;;12.50;83.30;;;;;;10401606;28;20123;-67
2023/05/18 03:48:35;;;;;;;2.15;1.17;;;12.50;83.40;;;;;;10382663;28;20123;-67
2023/05/18 03:53:36;;;;;;;2.88;1.25;;;12.50;83.30;;;;;;10398035;28;20104;-67
2023/05/18 03:58:36;;;;;;;4.45;1.38;;;12.50;83.40;;;;;;10396446;28;20097;-67
2023/05/18 04:03:39;;;;;;;1.90;1.35;;;12.40;83.40;;;;;;10406584;28;20022;-67
2023/05/18 04:08:40;;;;;;;2.17;1.30;;;12.40;83.30;;;;;;10400538;28;20026;-67
2023/05/18 04:13:41;;;;;;;1.83;1.00;;;12.40;83.30;;;;;;10402472;28;20079;-66
2023/05/18 04:18:43;;;;;;;3.13;1.40;;;12.50;83.30;;;;;;10408323;28;20022;-67
2023/05/18 04:23:44;;;;;;;4.05;1.33;;;12.40;83.30;;;;;;10402045;28;20018;-67
2023/05/18 04:28:48;;;;;;;2.88;1.65;;;12.40;83.20;;;;;;10406462;28;20430;-67
2023/05/18 04:33:50;;;;;;;2.47;1.40;;;12.40;83.20;;;;;;10406732;28;20594;-67
2023/05/18 04:38:51;;;;;;;3.53;1.30;;;12.40;83.20;;;;;;10413887;28;20037;-67
2023/05/18 04:43:52;;;;;;;2.80;1.25;;;12.50;83.30;;;;;;10408452;28;20030;-67
2023/05/18 04:48:56;;;;;;;4.85;1.50;;;12.40;83.20;;;;;;10411328;28;20021;-66
2023/05/18 04:53:57;;;;;;;4.50;1.30;;;12.40;83.20;;;;;;10409656;28;20026;-67
2023/05/18 04:58:58;;;;;;;4.03;1.38;;;12.40;83.10;;;;;;10402549;28;20386;-67
2023/05/18 05:03:58;;;;;;;1.67;1.20;;;12.40;83.10;;;;;;10395854;28;20393;-67
2023/05/18 05:08:59;;;;;;;2.88;1.38;;;12.40;83.20;;;;;;10411600;28;20163;-67
2023/05/18 05:14:01;;;;;;;2.95;1.40;;;12.40;83.10;;;;;;10402137;28;20593;-66
2023/05/18 05:19:02;;;;;;;2.50;1.20;;;12.40;83.10;;;;;;10411123;28;20032;-66
2023/05/18 05:24:04;;;;;;;2.38;1.33;;;13.00;83.40;;;;;;10411136;28;20032;-66
2023/05/18 05:29:05;;;;;;;3.17;1.40;;;12.40;83.10;;;;;;10413755;28;20087;-67
2023/05/18 05:34:06;;;;;;;4.45;1.25;;;12.40;83.10;;;;;;10386971;28;20025;-67
2023/05/18 05:39:06;;;;;;;3.75;1.20;;;12.40;83.10;;;;;;10409186;28;20049;-67
2023/05/18 05:44:07;;;;;;;3.38;1.10;;;12.40;83.10;;;;;;10406939;28;20052;-67
2023/05/18 05:49:07;;;;;;;2.83;1.10;;;12.40;83.10;;;;;;10404648;28;20048;-67
2023/05/18 05:54:08;;;;;;;3.38;1.90;;;12.40;83.10;;;;;;10416135;28;20029;-66
2023/05/18 05:59:09;;;;;;;3.13;1.13;;;12.40;83.00;;;;;;10400421;28;20080;-67
2023/05/18 06:04:11;;;;;;;1.30;1.05;;;12.40;83.00;;;;;;10391595;28;20030;-67
2023/05/18 06:09:11;;;;;;;3.22;1.25;;;12.50;83.00;;;;;;10402064;28;20372;-67
2023/05/18 06:14:12;;;;;;;3.33;1.30;;;12.50;83.00;;;;;;10393581;28;20029;-67
2023/05/18 06:19:13;;;;;;;2.53;1.17;;;12.50;82.90;;;;;;10402412;28;20064;-67
2023/05/18 06:24:13;;;;;;;2.58;1.30;;;12.50;82.90;;;;;;10389619;28;20484;-67
2023/05/18 06:29:14;;;;;;;2.83;1.42;;;12.50;82.90;;;;;;10387265;28;20017;-67
2023/05/18 06:34:14;;;;;;;2.33;1.10;;;12.60;82.80;;;;;;10399284;28;20030;-66
2023/05/18 06:39:15;;;;;;;2.53;1.30;;;12.60;82.80;;;;;;10409342;28;20029;-66
2023/05/18 06:44:16;;;;;;;2.28;1.20;;;12.60;82.80;;;;;;10377108;28;20494;-67
2023/05/18 06:49:16;;;;;;;2.55;1.33;;;12.60;82.70;;;;;;10399780;28;20045;-67
2023/05/18 06:54:17;;;;;;;3.03;1.20;;;12.60;82.70;;;;;;10407526;28;20021;-66
2023/05/18 06:59:17;;;;;;;3.13;1.05;;;12.70;82.60;;;;;;10398832;28;20021;-67
2023/05/18 07:04:18;;;;;;;1.85;1.20;;;12.90;82.70;;;;;;10387499;28;20067;-67
2023/05/18 07:09:19;;;;;;;2.92;0.93;;;12.80;82.60;;;;;;10403657;28;20032;-66
2023/05/18 07:14:19;;;;;;;2.55;1.33;;;12.80;82.40;;;;;;10412417;28;20037;-67
2023/05/18 07:19:20;;;;;;;1.33;1.00;;;12.80;82.40;;;;;;10413622;28;20033;-66
2023/05/18 07:24:21;;;;;;;3.85;1.25;;;12.90;82.40;;;;;;10383686;28;20040;-67
2023/05/18 07:29:21;;;;;;;2.72;1.00;;;12.90;82.30;;;;;;10401228;28;20047;-66
2023/05/18 07:34:22;;;;;;;1.88;1.10;;;12.90;82.30;;;;;;10372984;28;20022;-67
2023/05/18 07:39:27;;;;;;;1.98;1.00;;;12.90;82.30;;;;;;10382807;28;20037;-66
2023/05/18 07:44:28;;;;;;;1.63;0.98;;;13.00;82.30;;;;;;10384681;28;20571;-66
2023/05/18 07:49:28;;;;;;;3.38;1.10;;;12.90;82.30;;;;;;10377145;28;20156;-66
2023/05/18 07:54:29;;;;;;;1.80;0.80;;;13.00;82.30;;;;;;10405952;28;20025;-66
2023/05/18 07:59:30;;;;;;;2.17;1.27;;;12.90;82.30;;;;;;10408184;28;20075;-66
2023/05/18 08:04:30;;;;;;;3.50;1.13;;;12.90;82.30;;;;;;10412693;28;20025;-66
2023/05/18 08:09:31;;;;;;;1.17;1.00;;;13.00;82.40;;;;;;10367316;28;20020;-66
2023/05/18 08:14:31;;;;;;;4.05;1.20;;;13.00;82.40;;;;;;10404822;28;20505;-65
2023/05/18 08:19:32;;;;;;;3.42;1.20;;;13.00;82.40;;;;;;10406205;28;20424;-66
2023/05/18 08:24:33;;;;;;;2.83;1.42;;;13.00;82.40;;;;;;10406738;28;20032;-66
2023/05/18 08:29:33;;;;;;;1.55;1.10;;;13.00;82.40;;;;;;10408648;28;20025;-66
2023/05/18 08:34:34;;;;;;;1.02;0.90;;;13.10;82.50;;;;;;10422236;28;20481;-66
2023/05/18 08:39:36;;;;;;;1.77;1.23;;;13.10;82.50;;;;;;10409748;28;20807;-66
2023/05/18 08:44:42;;;;;;;2.35;1.30;;;13.10;82.40;;;;;;10408418;28;20033;-65
2023/05/18 08:49:47;;;;;;;1.80;1.10;;;13.20;82.40;;;;;;10400959;28;20041;-66
2023/05/18 08:54:50;;;;;;;1.77;1.10;;;13.20;82.40;;;;;;10403624;28;20037;-65
2023/05/18 08:59:53;;;;;;;1.17;0.80;;;13.30;82.40;;;;;;10405665;28;20014;-65
2023/05/18 09:04:55;;;;;;;2.20;1.00;;;13.30;82.30;;;;;;10413445;28;20040;-66
2023/05/18 09:09:57;;;;;;;1.95;1.40;;;13.20;82.20;;;;;;10386458;28;20026;-65
2023/05/18 09:14:58;;;;;;;3.03;1.10;;;13.40;82.90;;;;;;10410258;28;20037;-64
2023/05/18 09:19:59;;;;;;;4.28;1.25;;;13.40;82.40;;;;;;10409636;28;20113;-64
2023/05/18 09:25:04;;;;;;;2.30;1.00;;;13.40;82.40;;;;;;10399898;28;20037;-65
2023/05/18 09:30:09;;;;;;;1.77;1.10;;;13.40;82.40;;;;;;10400688;28;20017;-64
2023/05/18 09:35:11;;;;;;;1.40;1.20;;;13.50;82.50;;;;;;10396711;28;20083;-65
2023/05/18 09:40:11;;;;;;;2.35;1.20;;;13.50;82.60;;;;;;10408933;28;20461;-66
2023/05/18 09:45:22;;;;;;;2.85;1.23;;;13.60;82.60;;;;;;10404267;28;20029;-65
2023/05/18 09:50:24;;;;;;;2.15;0.90;;;13.60;82.80;;;;;;10404806;28;20082;-65
2023/05/18 09:55:24;;;;;;;4.07;2.20;;;13.60;82.70;;;;;;10389147;28;20100;-69
2023/05/18 10:00:25;;;;;;;8.07;2.10;;;13.70;81.80;;;;;;10399584;28;20500;-70
2023/05/18 10:05:41;;;;;;;4.88;2.10;;;13.20;81.00;;;;;;10403465;28;20032;-70
2023/05/18 10:10:44;;;;;;;4.65;1.80;;;13.30;81.10;;;;;;10389474;28;20154;-70
2023/05/18 10:15:52;;;;;;;7.05;2.10;;;13.10;80.60;;;;;;10388767;28;20118;-70
2023/05/18 10:20:55;;;;;;;6.97;2.10;;;12.80;78.60;;;;;;10379849;28;20445;-70
2023/05/18 10:25:56;;;;;;;5.07;1.70;;;12.70;80.00;;;;;;10368393;28;20223;-70
2023/05/18 10:30:58;;;;;;;5.97;2.25;;;12.70;79.50;;;;;;10381698;28;20029;-70
2023/05/18 10:36:02;;;;;;;5.38;2.00;;;12.80;79.40;;;;;;10399424;28;20474;-70
2023/05/18 10:41:04;;;;;;;7.00;1.90;;;13.00;79.20;;;;;;10404765;28;20036;-70
2023/05/18 10:46:08;;;;;;;6.88;2.60;;;13.10;79.00;;;;;;10390096;28;20017;-70
2023/05/18 10:51:09;;;;;;;5.25;1.92;;;13.20;78.50;;;;;;10395065;28;20738;-70
2023/05/18 10:56:10;;;;;;;3.40;1.80;;;13.40;78.20;;;;;;10399283;28;20025;-71
2023/05/18 11:01:12;;;;;;;5.97;2.10;;;13.10;77.10;;;;;;10379752;28;20022;-71
2023/05/18 11:06:14;;;;;;;3.85;2.10;;;13.10;77.90;;;;;;10399458;28;20051;-71
2023/05/18 11:11:15;;;;;;;9.32;2.28;;;13.20;77.60;;;;;;10378321;28;20034;-69
2023/05/18 11:16:17;;;;;;;6.00;1.88;;;13.30;77.70;;;;;;10396739;28;20048;-69
2023/05/18 11:21:18;;;;;;;7.13;2.60;;;13.40;77.10;;;;;;10389735;28;20022;-69
2023/05/18 11:26:19;;;;;;;9.35;2.22;;;13.40;77.60;;;;;;10397497;28;20024;-69
2023/05/18 11:31:20;;;;;;;7.93;2.22;;;13.60;77.30;;;;;;10399800;28;20022;-69
2023/05/18 11:36:22;;;;;;;6.97;2.15;;;13.70;76.90;;;;;;10398529;28;20021;-68
2023/05/18 11:41:28;;;;;;;8.00;2.33;;;13.90;76.70;;;;;;10391263;28;20022;-68
2023/05/18 11:46:29;;;;;;;6.28;2.13;;;13.90;75.70;;;;;;10395660;28;20029;-69
2023/05/18 11:51:33;;;;;;;4.68;2.70;;;14.00;75.90;;;;;;10392809;28;20448;-70
2023/05/18 11:56:33;;;;;;;9.25;2.25;;;14.20;75.70;;;;;;10378477;28;20028;-70
2023/05/18 12:01:34;;;;;;;5.55;2.38;;;14.40;76.10;;;;;;10405172;28;20025;-68
2023/05/18 12:06:36;;;;;;;5.50;2.10;;;14.50;75.30;;;;;;10408504;28;20393;-67
2023/05/18 12:11:37;;;;;;;8.80;3.38;;;14.70;75.30;;;;;;10404169;28;20465;-72
2023/05/18 12:16:39;;;;;;;8.13;2.53;;;14.70;74.60;;;;;;10394955;28;20022;-68
2023/05/18 12:21:39;;;;;;;6.93;2.58;;;14.90;75.30;;;;;;10399961;28;20037;-71
2023/05/18 12:26:40;;;;;;;7.00;2.45;;;15.10;74.90;;;;;;10403050;28;20052;-70
2023/05/18 12:31:41;;;;;;;8.55;3.00;;;15.20;74.70;;;;;;10415832;28;20332;-70
2023/05/18 12:36:51;;;;;;;5.57;2.42;;;15.40;74.40;;;;;;10383902;28;20076;-69
2023/05/18 12:41:52;;;;;;;8.85;2.88;;;15.50;71.90;;;;;;10372862;28;20644;-69
2023/05/18 12:46:54;;;;;;;10.50;2.97;;;15.60;73.30;;;;;;10372916;28;20026;-70
2023/05/18 12:51:54;;;;;;;7.57;2.25;;;15.60;72.60;;;;;;10380459;28;20030;-71
2023/05/18 12:56:59;;;;;;;5.60;2.28;;;15.60;72.30;;;;;;10402250;28;20374;-70
2023/05/18 13:01:59;;;;;;;15.82;2.70;;;15.70;71.30;;;;;;10421257;28;20470;-71
2023/05/18 13:07:00;;;;;;;22.27;4.95;;;15.70;71.60;;;;;;10410091;28;20025;-70
2023/05/18 13:12:01;;;;;;;10.57;2.25;;;15.80;71.10;;;;;;10398590;28;20508;-70
2023/05/18 13:17:02;;;;;;;33.45;3.70;;;15.80;71.60;;;;;;10403913;28;20442;-70
2023/05/18 13:22:03;;;;;;;6.72;2.30;;;15.80;71.10;;;;;;10402319;28;20441;-70
2023/05/18 13:27:03;;;;;;;14.93;3.15;;;15.60;70.90;;;;;;10402813;28;20022;-70
2023/05/18 13:32:04;;;;;;;10.77;3.10;;;15.40;71.90;;;;;;10404976;28;20030;-70
2023/05/18 13:37:05;;;;;;;7.47;2.40;;;15.30;71.70;;;;;;10399678;28;20034;-70
2023/05/18 13:42:07;;;;;;;4.80;2.17;;;15.30;71.50;;;;;;10408704;28;20033;-70
2023/05/18 13:47:07;;;;;;;5.05;2.08;;;15.50;71.20;;;;;;10401400;28;20053;-71
2023/05/18 13:52:08;;;;;;;5.80;2.20;;;15.90;70.80;;;;;;10397458;28;20112;-73
2023/05/18 13:57:09;;;;;;;6.55;2.45;;;16.40;69.90;;;;;;10399984;28;20595;-71
2023/05/18 14:02:09;;;;;;;5.45;2.22;;;16.80;69.20;;;;;;10400475;28;20022;-71
2023/05/18 14:07:11;;;;;;;3.50;2.35;;;17.00;68.60;;;;;;10381136;28;20034;-71
2023/05/18 14:12:11;;;;;;;4.55;2.20;;;17.00;68.20;;;;;;10402771;28;20047;-71
2023/05/18 14:17:16;;;;;;;6.80;2.10;;;17.00;68.80;;;;;;10400664;28;20110;-71
2023/05/18 14:22:17;;;;;;;4.60;2.38;;;16.90;68.30;;;;;;10394168;28;20025;-70
2023/05/18 14:27:20;;;;;;;8.57;2.20;;;17.10;68.60;;;;;;10399337;28;20485;-70
2023/05/18 14:32:21;;;;;;;4.53;2.45;;;17.40;68.10;;;;;;10398048;28;20493;-70
2023/05/18 14:37:22;;;;;;;5.57;2.22;;;17.40;67.80;;;;;;10400967;28;20030;-70
2023/05/18 14:42:22;;;;;;;4.85;2.10;;;17.40;67.80;;;;;;10396985;28;20025;-71
2023/05/18 14:47:24;;;;;;;7.45;2.30;;;17.10;67.40;;;;;;10398991;28;20464;-70
2023/05/18 14:52:25;;;;;;;5.30;1.98;;;16.70;67.60;;;;;;10403684;28;20029;-70
2023/05/18 14:57:26;;;;;;;3.63;2.00;;;16.60;68.00;;;;;;10400270;28;20026;-70
2023/05/18 15:02:26;;;;;;;4.75;1.92;;;16.80;68.30;;;;;;10390207;28;20025;-70
2023/05/18 15:07:27;;;;;;;5.03;2.13;;;16.90;68.00;;;;;;10375853;28;20029;-71
2023/05/18 15:12:27;;;;;;;4.15;2.00;;;16.90;67.90;;;;;;10398618;28;20057;-71
2023/05/18 15:17:28;;;;;;;6.28;2.00;;;17.00;67.10;;;;;;10403882;28;20072;-70
2023/05/18 15:22:28;;;;;;;4.05;1.95;;;17.10;67.20;;;;;;10379787;28;20019;-70
2023/05/18 15:27:30;;;;;;;6.22;1.92;;;17.40;66.10;;;;;;10382166;28;20033;-69
2023/05/18 15:32:30;;;;;;;5.05;1.83;;;17.40;66.00;;;;;;10388312;28;20033;-66
2023/05/18 15:37:31;;;;;;;4.32;1.77;;;17.60;65.90;;;;;;10384819;28;20060;-67
2023/05/18 15:42:32;;;;;;;2.80;1.98;;;17.80;66.20;;;;;;10386413;28;20113;-67
2023/05/18 15:47:33;;;;;;;5.05;1.77;;;18.00;66.40;;;;;;10391878;28;20404;-67
2023/05/18 15:52:33;;;;;;;2.83;1.55;;;18.20;66.80;;;;;;10392612;28;20036;-67
2023/05/18 15:57:34;;;;;;;2.28;1.63;;;18.20;67.30;;;;;;10378102;28;20022;-69
2023/05/18 16:02:35;;;;;;;3.03;1.92;;;18.10;67.40;;;;;;10374856;28;20033;-74
2023/05/18 16:07:36;;;;;;;3.97;2.25;;;17.70;67.50;;;;;;10365497;28;20033;-73
2023/05/18 16:12:36;;;;;;;4.63;1.65;;;17.20;68.10;;;;;;10394055;28;20022;-73
2023/05/18 16:17:37;;;;;;;6.93;2.13;;;16.90;68.70;;;;;;10383894;28;20040;-75
2023/05/18 16:22:38;;;;;;;7.38;2.22;;;16.60;69.60;;;;;;10399358;28;20037;-75
2023/05/18 16:27:38;;;;;;;105.18;11.98;;;16.50;70.10;;;;;;10403292;28;20025;-75
2023/05/18 16:32:39;;;;;;;5.72;2.30;;;16.30;70.80;;;;;;10382293;28;20033;-72
2023/05/18 16:37:39;;;;;;;6.28;2.40;;;16.30;71.50;;;;;;10399761;28;20026;-73
2023/05/18 16:42:40;;;;;;;5.32;2.33;;;16.30;71.90;;;;;;10406118;28;20560;-72
2023/05/18 16:47:41;;;;;;;5.30;2.45;;;16.10;72.40;;;;;;10388494;28;20030;-73
2023/05/18 16:52:41;;;;;;;4.18;2.10;;;15.90;72.90;;;;;;10411052;28;20029;-72
2023/05/18 16:57:42;;;;;;;8.40;2.33;;;15.80;73.70;;;;;;10407831;28;20044;-73
2023/05/18 17:02:43;;;;;;;5.05;1.90;;;15.80;74.30;;;;;;10408391;28;20032;-72
2023/05/18 17:07:44;;;;;;;6.22;2.30;;;15.70;74.90;;;;;;10401178;28;20026;-72
2023/05/18 17:12:44;;;;;;;8.30;2.55;;;15.60;75.40;;;;;;10384479;28;20061;-73
2023/05/18 17:17:45;;;;;;;5.70;1.85;;;15.50;75.90;;;;;;10407533;28;20029;-74
2023/05/18 17:22:46;;;;;;;5.07;2.25;;;15.40;76.80;;;;;;10402542;28;20319;-73
2023/05/18 17:27:48;;;;;;;7.10;2.35;;;15.30;77.50;;;;;;10406475;28;20018;-71
2023/05/18 17:32:49;;;;;;;15.57;3.30;;;15.10;78.20;;;;;;10400546;28;20061;-71
2023/05/18 17:37:50;;;;;;;7.43;2.13;;;15.00;78.60;;;;;;10396131;28;20025;-71
2023/05/18 17:42:50;;;;;;;11.27;2.17;;;15.70;79.50;;;;;;10397166;28;20037;-71
2023/05/18 17:47:51;;;;;;;11.18;3.25;;;14.90;79.40;;;;;;10399690;28;20028;-71
2023/05/18 17:52:53;;;;;;;7.53;1.98;;;14.80;79.50;;;;;;10401975;28;20044;-68
2023/05/18 17:57:53;;;;;;;6.93;1.70;;;14.80;80.00;;;;;;10409499;28;20549;-67
2023/05/18 18:02:54;;;;;;;3.65;1.67;;;15.00;79.80;;;;;;10384606;28;20021;-67
2023/05/18 18:07:57;;;;;;;7.28;1.88;;;15.30;79.50;;;;;;10400864;28;20022;-67
2023/05/18 18:12:57;;;;;;;8.45;1.63;;;15.50;79.20;;;;;;10402462;28;20029;-68
2023/05/18 18:17:58;;;;;;;2.58;1.60;;;15.70;79.00;;;;;;10408279;28;20017;-67
2023/05/18 18:22:58;;;;;;;4.95;1.63;;;15.80;79.00;;;;;;10397733;28;20017;-67
2023/05/18 18:28:00;;;;;;;4.25;1.63;;;15.90;78.90;;;;;;10397896;28;20481;-68
2023/05/18 18:33:01;;;;;;;6.25;1.90;;;16.00;79.00;;;;;;10378046;28;20045;-68
2023/05/18 18:38:02;;;;;;;3.90;1.50;;;16.10;79.00;;;;;;10399714;28;20263;-68
2023/05/18 18:43:03;;;;;;;6.53;1.77;;;16.10;79.10;;;;;;10403662;28;20025;-68
2023/05/18 18:48:04;;;;;;;6.32;1.30;;;16.20;79.30;;;;;;10390013;28;20051;-67
2023/05/18 18:53:05;;;;;;;3.65;1.30;;;16.20;79.40;;;;;;10392511;28;20128;-67
2023/05/18 18:58:06;;;;;;;4.88;1.60;;;16.20;79.60;;;;;;10395994;28;20180;-68
2023/05/18 19:03:13;;;;;;;3.75;1.30;;;16.20;79.80;;;;;;10403190;28;20697;-68
2023/05/18 19:08:15;;;;;;;3.35;1.38;;;16.20;80.00;;;;;;10398836;28;20473;-67
2023/05/18 19:13:15;;;;;;;3.42;1.95;;;16.20;80.10;;;;;;10391158;28;20434;-68
2023/05/18 19:18:16;;;;;;;3.75;1.40;;;16.20;80.30;;;;;;10388531;28;20037;-68
2023/05/18 19:23:17;;;;;;;2.42;1.17;;;16.10;80.40;;;;;;10370460;28;20029;-69
2023/05/18 19:28:17;;;;;;;3.63;1.20;;;16.10;80.50;;;;;;10389114;28;20037;-67
2023/05/18 19:33:18;;;;;;;2.03;1.20;;;16.10;80.70;;;;;;10410302;28;20061;-67
2023/05/18 19:38:19;;;;;;;1.77;1.20;;;16.10;80.90;;;;;;10411173;28;20021;-68
2023/05/18 19:43:19;;;;;;;4.45;1.33;;;16.10;81.00;;;;;;10412381;28;20025;-68
2023/05/18 19:48:20;;;;;;;2.80;1.27;;;15.90;81.00;;;;;;10405072;28;20477;-67
2023/05/18 19:53:21;;;;;;;1.77;1.23;;;16.00;81.10;;;;;;10413791;28;20593;-68
2023/05/18 19:58:22;;;;;;;1.95;1.00;;;16.00;81.30;;;;;;10406167;28;20389;-67
2023/05/18 20:03:22;;;;;;;2.28;1.10;;;16.00;81.40;;;;;;10413968;28;20040;-67
2023/05/18 20:08:23;;;;;;;3.05;1.27;;;15.90;81.50;;;;;;10411272;28;20028;-67
2023/05/18 20:13:24;;;;;;;6.13;1.75;;;15.90;81.50;;;;;;10406618;28;20025;-68
2023/05/18 20:18:24;;;;;;;4.57;1.73;;;15.80;81.60;;;;;;10385405;28;20021;-68
2023/05/18 20:23:25;;;;;;;7.45;1.65;;;15.70;82.20;;;;;;10385628;28;20040;-68
2023/05/18 20:28:27;;;;;;;6.57;2.55;;;15.60;82.30;;;;;;10407482;28;20021;-68
2023/05/18 20:33:28;;;;;;;6.68;1.30;;;15.60;82.20;;;;;;10414322;28;20025;-67
2023/05/18 20:38:29;;;;;;;4.55;1.70;;;15.70;82.30;;;;;;10399177;28;20528;-67
2023/05/18 20:43:30;;;;;;;5.63;1.55;;;15.60;82.20;;;;;;10403080;28;20036;-68
2023/05/18 20:48:31;;;;;;;4.60;1.30;;;15.60;82.30;;;;;;10382342;28;20545;-68
2023/05/18 20:53:32;;;;;;;7.05;1.60;;;15.50;82.20;;;;;;10402533;28;20684;-67
2023/05/18 20:58:34;;;;;;;3.80;1.38;;;15.60;82.30;;;;;;10402957;28;20017;-67
2023/05/18 21:03:57;;;;;;;2.28;1.30;;;15.50;82.30;;;;;;10399858;28;20041;-67
2023/05/18 21:09:01;;;;;;;2.08;1.05;;;15.40;82.30;;;;;;10365704;28;20033;-67
2023/05/18 21:14:02;;;;;;;3.35;1.45;;;15.50;82.40;;;;;;10379547;28;20028;-67
2023/05/18 21:19:03;;;;;;;2.20;1.13;;;15.50;82.40;;;;;;10387719;28;20032;-68
2023/05/18 21:24:04;;;;;;;4.60;1.27;;;15.40;82.40;;;;;;10399747;28;20480;-68
2023/05/18 21:29:05;;;;;;;1.88;1.10;;;15.40;82.50;;;;;;10405578;28;20017;-67
2023/05/18 21:34:05;;;;;;;3.70;1.25;;;15.30;82.60;;;;;;10400353;28;20340;-67
2023/05/18 21:39:08;;;;;;;2.65;1.45;;;15.30;82.70;;;;;;10400653;28;20032;-67
2023/05/18 21:44:09;;;;;;;2.78;1.20;;;15.30;82.80;;;;;;10391471;28;20052;-67
2023/05/18 21:49:10;;;;;;;5.80;1.38;;;15.30;82.90;;;;;;10398347;28;20104;-68
2023/05/18 21:54:11;;;;;;;3.80;1.35;;;15.20;82.90;;;;;;10408757;28;20059;-67
2023/05/18 21:59:11;;;;;;;2.17;1.25;;;15.20;83.00;;;;;;10399616;28;20112;-67
2023/05/18 22:04:12;;;;;;;2.75;1.15;;;15.10;83.00;;;;;;10383574;28;20021;-67
2023/05/18 22:09:12;;;;;;;2.70;1.45;;;15.20;83.10;;;;;;10401034;28;20020;-67
2023/05/18 22:14:13;;;;;;;3.63;1.48;;;15.10;83.20;;;;;;10402603;28;20064;-67
2023/05/18 22:19:13;;;;;;;3.17;1.40;;;15.10;83.20;;;;;;10399234;28;20025;-67
2023/05/18 22:24:15;;;;;;;2.75;1.33;;;15.00;83.20;;;;;;10401633;28;20289;-67
2023/05/18 22:29:15;;;;;;;2.35;1.20;;;15.00;83.30;;;;;;10386315;28;20025;-67
2023/05/18 22:34:16;;;;;;;3.47;1.30;;;15.00;83.30;;;;;;10396252;28;20030;-67
2023/05/18 22:39:17;;;;;;;2.53;1.30;;;15.00;83.40;;;;;;10401348;28;20025;-67
2023/05/18 22:44:17;;;;;;;2.80;1.30;;;14.90;83.40;;;;;;10378872;28;20049;-67
2023/05/18 22:49:18;;;;;;;4.07;1.15;;;14.90;83.50;;;;;;10400242;28;20033;-67
2023/05/18 22:54:21;;;;;;;1.60;1.02;;;14.90;83.50;;;;;;10402107;28;20076;-67
2023/05/18 22:59:21;;;;;;;2.83;1.52;;;14.90;83.60;;;;;;10404813;28;20031;-67
2023/05/18 23:04:22;;;;;;;2.30;1.27;;;14.80;83.70;;;;;;10402934;28;20021;-68
2023/05/18 23:09:25;;;;;;;3.42;1.70;;;15.30;84.00;;;;;;10381187;28;20400;-67
2023/05/18 23:14:29;;;;;;;2.75;1.30;;;14.80;83.80;;;;;;10374721;28;20108;-67
2023/05/18 23:19:30;;;;;;;4.63;1.30;;;14.80;83.90;;;;;;10394343;28;20065;-67
2023/05/18 23:24:31;;;;;;;2.75;1.08;;;14.70;83.90;;;;;;10403195;28;20588;-68
2023/05/18 23:29:31;;;;;;;2.25;1.20;;;14.60;83.90;;;;;;10390879;28;20064;-68
2023/05/18 23:34:32;;;;;;;2.13;1.45;;;14.70;84.00;;;;;;10399543;28;20076;-67
2023/05/18 23:39:33;;;;;;;1.77;1.10;;;14.60;84.10;;;;;;10402808;28;20032;-68
2023/05/18 23:44:34;;;;;;;2.40;1.25;;;14.60;84.10;;;;;;10398435;28;20477;-68
2023/05/18 23:49:36;;;;;;;1.60;1.27;;;14.50;84.10;;;;;;10394375;28;20037;-67
2023/05/18 23:54:36;;;;;;;3.00;1.20;;;14.50;84.20;;;;;;10405136;28;20040;-67
2023/05/18 23:59:37;;;;;;;2.10;1.23;;;14.50;84.80;;;;;;10397965;28;20022;-68
